createdAt,value
2018-11-28T00:01:27.653Z,22.33
2018-11-28T00:03:55.788Z,23.77
2018-11-28T00:06:23.935Z,24.57
2018-11-28T00:08:52.080Z,28.03
2018-11-28T00:11:20.262Z,27.30
2018-11-28T00:13:48.412Z,27.50
2018-11-28T00:16:16.591Z,24.80
2018-11-28T00:18:44.725Z,25.03
2018-11-28T00:21:12.885Z,27.47
2018-11-28T00:23:41.067Z,28.97
2018-11-28T00:26:09.230Z,25.30
2018-11-28T00:28:37.369Z,28.00
2018-11-28T00:31:05.560Z,25.17
2018-11-28T00:33:33.725Z,26.53
2018-11-28T00:36:01.873Z,27.10
2018-11-28T00:38:30.007Z,23.57
2018-11-28T00:40:58.144Z,25.97
2018-11-28T00:43:26.296Z,27.97
2018-11-28T00:45:54.470Z,28.70
2018-11-28T00:48:22.627Z,23.93
2018-11-28T00:50:50.778Z,27.70
2018-11-28T00:53:18.945Z,28.40
2018-11-28T00:55:48.548Z,25.73
2018-11-28T00:58:15.248Z,29.90
2018-11-28T01:00:43.407Z,30.13
2018-11-28T01:03:11.540Z,29.17
2018-11-28T01:05:39.676Z,28.80
2018-11-28T01:08:07.843Z,30.17
2018-11-28T01:10:36.018Z,30.13
2018-11-28T01:13:04.149Z,29.83
2018-11-28T01:15:32.312Z,26.30
2018-11-28T01:18:00.497Z,30.27
2018-11-28T01:20:28.669Z,25.70
2018-11-28T01:22:56.861Z,33.17
2018-11-28T01:25:25.003Z,29.33
2018-11-28T01:27:53.158Z,30.07
2018-11-28T01:30:22.328Z,28.80
2018-11-28T01:32:50.537Z,30.67
2018-11-28T01:35:19.516Z,32.77
2018-11-28T01:37:47.740Z,29.47
2018-11-28T01:40:20.876Z,29.43
2018-11-28T01:42:49.054Z,32.40
2018-11-28T01:45:19.176Z,33.23
2018-11-28T01:47:47.421Z,32.47
2018-11-28T01:50:16.492Z,28.80
2018-11-28T01:52:44.653Z,33.77
2018-11-28T01:55:17.756Z,30.17
2018-11-28T01:57:45.929Z,32.80
2018-11-28T02:00:20.398Z,29.03
2018-11-28T02:02:50.878Z,26.43
2018-11-28T02:05:19.064Z,29.13
2018-11-28T02:07:47.201Z,28.40
2018-11-28T02:10:16.072Z,29.53
2018-11-28T02:12:44.212Z,31.30
2018-11-28T02:15:15.421Z,28.60
2018-11-28T02:17:43.591Z,29.37
2018-11-28T02:20:12.802Z,30.67
2018-11-28T02:22:40.969Z,28.50
2018-11-28T02:25:11.412Z,27.97
2018-11-28T02:27:39.568Z,28.73
2018-11-28T02:30:11.463Z,32.40
2018-11-28T02:32:39.640Z,29.17
2018-11-28T02:35:09.327Z,31.40
2018-11-28T02:37:37.812Z,27.90
2018-11-28T02:40:07.837Z,32.13
2018-11-28T02:42:36.009Z,31.03
2018-11-28T02:45:05.821Z,29.83
2018-11-28T02:47:33.960Z,29.43
2018-11-28T02:50:02.114Z,33.07
2018-11-28T02:52:30.266Z,31.67
2018-11-28T02:54:58.451Z,30.60
2018-11-28T02:57:26.621Z,27.70
2018-11-28T02:59:54.766Z,26.23
2018-11-28T03:02:22.922Z,27.93
2018-11-28T03:04:51.091Z,28.90
2018-11-28T03:07:19.257Z,28.53
2018-11-28T03:09:47.406Z,29.63
2018-11-28T03:12:15.534Z,28.17
2018-11-28T03:14:43.694Z,27.73
2018-11-28T03:17:17.317Z,28.80
2018-11-28T03:19:45.482Z,30.80
2018-11-28T03:22:13.624Z,28.37
2018-11-28T03:24:41.765Z,30.63
2018-11-28T03:27:09.966Z,26.97
2018-11-28T03:29:38.157Z,29.27
2018-11-28T03:32:06.338Z,27.23
2018-11-28T03:34:34.469Z,30.23
2018-11-28T03:37:02.626Z,28.17
2018-11-28T03:39:30.825Z,32.50
2018-11-28T03:41:58.981Z,28.77
2018-11-28T03:44:27.138Z,28.83
2018-11-28T03:46:55.304Z,27.33
2018-11-28T03:49:23.461Z,27.27
2018-11-28T03:51:51.642Z,25.87
2018-11-28T03:54:19.795Z,26.83
2018-11-28T03:56:47.925Z,32.30
2018-11-28T03:59:16.073Z,25.63
2018-11-28T04:01:44.222Z,27.10
2018-11-28T04:04:12.370Z,29.33
2018-11-28T04:06:40.597Z,26.57
2018-11-28T04:09:08.883Z,30.83
2018-11-28T04:11:36.961Z,29.90
2018-11-28T04:14:05.150Z,27.93
2018-11-28T04:16:33.344Z,29.00
2018-11-28T04:19:04.496Z,28.87
2018-11-28T04:21:32.710Z,27.77
2018-11-28T04:24:01.137Z,29.90
2018-11-28T04:26:29.299Z,33.30
2018-11-28T04:28:57.477Z,28.57
2018-11-28T04:31:25.631Z,26.93
2018-11-28T04:33:53.833Z,30.87
2018-11-28T04:36:21.990Z,31.97
2018-11-28T04:38:50.136Z,27.63
2018-11-28T04:41:18.283Z,29.77
2018-11-28T04:43:46.453Z,30.60
2018-11-28T04:46:14.618Z,27.33
2018-11-28T04:48:42.768Z,28.67
2018-11-28T04:51:10.919Z,25.17
2018-11-28T04:53:39.086Z,27.37
2018-11-28T04:56:07.229Z,31.63
2018-11-28T04:58:35.409Z,29.33
2018-11-28T05:01:03.567Z,28.77
2018-11-28T05:03:31.734Z,27.87
2018-11-28T05:05:59.876Z,30.17
2018-11-28T05:08:28.070Z,29.40
2018-11-28T05:10:56.261Z,31.87
2018-11-28T05:13:24.673Z,31.30
2018-11-28T05:15:52.838Z,29.70
2018-11-28T05:18:20.988Z,26.47
2018-11-28T05:20:49.154Z,32.57
2018-11-28T05:23:17.422Z,29.80
2018-11-28T05:25:45.619Z,32.03
2018-11-28T05:28:14.557Z,34.53
2018-11-28T05:30:42.696Z,29.27
2018-11-28T05:33:11.010Z,31.00
2018-11-28T05:35:40.207Z,30.27
2018-11-28T05:38:12.101Z,29.50
2018-11-28T05:40:40.613Z,32.70
2018-11-28T05:43:08.850Z,30.10
2018-11-28T05:45:37.281Z,31.83
2018-11-28T05:48:05.849Z,26.70
2018-11-28T05:50:34.170Z,29.73
2018-11-28T05:53:02.382Z,30.83
2018-11-28T05:55:30.613Z,31.53
2018-11-28T05:57:58.788Z,26.87
2018-11-28T06:00:33.022Z,26.37
2018-11-28T06:03:01.190Z,28.53
2018-11-28T06:05:29.402Z,25.20
2018-11-28T06:07:57.589Z,29.70
2018-11-28T06:10:25.773Z,32.00
2018-11-28T06:12:53.926Z,29.33
2018-11-28T06:15:22.118Z,25.57
2018-11-28T06:17:50.365Z,29.27
2018-11-28T06:20:18.545Z,29.00
2018-11-28T06:22:46.762Z,30.90
2018-11-28T06:25:16.888Z,27.73
2018-11-28T06:27:44.363Z,29.93
2018-11-28T06:30:14.597Z,31.53
2018-11-28T06:32:43.717Z,32.00
2018-11-28T06:35:12.200Z,29.23
2018-11-28T06:37:40.775Z,28.77
2018-11-28T06:40:11.766Z,30.47
2018-11-28T06:42:40.025Z,27.73
2018-11-28T06:45:10.594Z,30.00
2018-11-28T06:47:38.793Z,33.53
2018-11-28T06:50:14.852Z,30.73
2018-11-28T06:52:43.959Z,32.50
2018-11-28T06:55:13.553Z,33.70
2018-11-28T06:57:42.440Z,27.93
2018-11-28T07:00:17.818Z,31.43
2018-11-28T07:02:46.375Z,30.00
2018-11-28T07:05:14.642Z,27.73
2018-11-28T07:07:49.773Z,27.70
2018-11-28T07:10:19.013Z,31.83
2018-11-28T07:12:47.188Z,28.60
2018-11-28T07:15:16.457Z,26.77
2018-11-28T07:17:44.944Z,35.23
2018-11-28T07:20:15.124Z,29.03
2018-11-28T07:22:43.350Z,30.20
2018-11-28T07:25:12.655Z,26.07
2018-11-28T07:27:45.021Z,31.63
2018-11-28T07:30:13.005Z,26.40
2018-11-28T07:32:41.244Z,27.47
2018-11-28T07:35:10.143Z,28.50
2018-11-28T07:37:38.733Z,28.53
2018-11-28T07:40:12.548Z,33.20
2018-11-28T07:42:41.420Z,33.07
2018-11-28T07:45:11.235Z,27.93
2018-11-28T07:47:39.422Z,28.00
2018-11-28T07:50:08.929Z,32.83
2018-11-28T07:52:37.477Z,27.73
2018-11-28T07:55:07.530Z,30.50
2018-11-28T07:57:35.812Z,30.10
2018-11-28T08:00:04.804Z,28.00
2018-11-28T08:02:33.053Z,28.13
2018-11-28T08:05:01.321Z,27.87
2018-11-28T08:07:29.523Z,27.57
2018-11-28T08:09:57.747Z,34.23
2018-11-28T08:12:25.985Z,30.43
2018-11-28T08:14:54.160Z,35.27
2018-11-28T08:17:22.373Z,30.00
2018-11-28T08:19:50.590Z,31.17
2018-11-28T08:22:19.704Z,31.13
2018-11-28T08:24:47.910Z,30.23
2018-11-28T08:27:16.097Z,29.27
2018-11-28T08:29:44.315Z,31.07
2018-11-28T08:32:12.458Z,27.67
2018-11-28T08:34:40.709Z,28.53
2018-11-28T08:37:08.937Z,29.63
2018-11-28T08:39:37.120Z,30.17
2018-11-28T08:42:06.209Z,31.27
2018-11-28T08:44:34.441Z,32.73
2018-11-28T08:47:02.752Z,33.47
2018-11-28T08:49:31.181Z,36.00
2018-11-28T08:51:59.365Z,32.07
2018-11-28T08:54:27.552Z,29.47
2018-11-28T08:56:56.294Z,32.20
2018-11-28T08:59:24.516Z,27.40
2018-11-28T09:01:52.770Z,28.77
2018-11-28T09:04:21.090Z,32.93
2018-11-28T09:06:49.426Z,32.07
2018-11-28T09:09:17.716Z,27.93
2018-11-28T09:11:46.025Z,30.13
2018-11-28T09:14:14.283Z,29.73
2018-11-28T09:16:42.557Z,29.30
2018-11-28T09:19:10.713Z,34.73
2018-11-28T09:21:38.977Z,30.27
2018-11-28T09:24:07.360Z,30.00
2018-11-28T09:26:35.569Z,26.00
2018-11-28T09:29:03.718Z,26.50
2018-11-28T09:31:31.912Z,28.20
2018-11-28T09:34:00.063Z,34.63
2018-11-28T09:36:28.671Z,31.63
2018-11-28T09:38:56.861Z,32.50
2018-11-28T09:41:25.157Z,30.33
2018-11-28T09:43:53.337Z,36.17
2018-11-28T09:46:21.566Z,37.20
2018-11-28T09:48:49.797Z,32.30
2018-11-28T09:51:18.014Z,34.63
2018-11-28T09:53:46.244Z,31.17
2018-11-28T09:56:14.506Z,28.87
2018-11-28T09:58:42.720Z,27.87
2018-11-28T10:01:10.922Z,30.90
2018-11-28T10:03:39.101Z,34.43
2018-11-28T10:06:07.348Z,33.23
2018-11-28T10:08:35.541Z,33.57
2018-11-28T10:11:03.704Z,29.97
2018-11-28T10:13:31.893Z,33.67
2018-11-28T10:16:01.536Z,32.00
2018-11-28T10:18:28.260Z,31.37
2018-11-28T10:20:56.400Z,27.57
2018-11-28T10:23:24.673Z,35.83
2018-11-28T10:25:53.479Z,29.40
2018-11-28T10:28:21.672Z,35.27
2018-11-28T10:30:49.972Z,29.17
2018-11-28T10:33:18.167Z,29.47
2018-11-28T10:35:46.664Z,28.33
2018-11-28T10:38:14.674Z,28.30
2018-11-28T10:40:42.956Z,31.30
2018-11-28T10:43:11.161Z,32.03
2018-11-28T10:45:39.386Z,27.57
2018-11-28T10:48:09.325Z,27.90
2018-11-28T10:50:37.603Z,27.47
2018-11-28T10:53:06.285Z,33.83
2018-11-28T10:55:34.519Z,31.20
2018-11-28T10:58:02.689Z,30.80
2018-11-28T11:00:36.584Z,27.47
2018-11-28T11:03:11.361Z,28.50
2018-11-28T11:05:45.018Z,30.90
2018-11-28T11:08:18.564Z,30.87
2018-11-28T11:10:52.029Z,32.10
2018-11-28T11:13:25.561Z,26.47
2018-11-28T11:15:58.737Z,26.67
2018-11-28T11:18:27.807Z,32.03
2018-11-28T11:20:56.417Z,31.77
2018-11-28T11:23:25.422Z,33.40
2018-11-28T11:26:01.216Z,27.83
2018-11-28T11:28:29.388Z,33.73
2018-11-28T11:30:58.565Z,32.07
2018-11-28T11:33:26.784Z,33.40
2018-11-28T11:35:54.951Z,32.00
2018-11-28T11:38:23.181Z,28.03
2018-11-28T11:40:52.121Z,30.73
2018-11-28T11:43:20.392Z,25.90
2018-11-28T11:45:52.331Z,27.93
2018-11-28T11:48:20.465Z,27.47
2018-11-28T11:50:49.330Z,26.33
2018-11-28T11:53:17.526Z,26.77
2018-11-28T11:55:45.778Z,25.50
2018-11-28T11:58:13.924Z,29.80
2018-11-28T12:00:43.518Z,28.90
2018-11-28T12:03:12.833Z,25.43
2018-11-28T12:05:42.549Z,26.60
2018-11-28T12:08:10.728Z,28.63
2018-11-28T12:10:39.010Z,27.50
2018-11-28T12:13:07.181Z,24.40
2018-11-28T12:15:35.820Z,26.70
2018-11-28T12:18:03.660Z,23.70
2018-11-28T12:20:44.849Z,27.23
2018-11-28T12:23:13.081Z,24.07
2018-11-28T12:25:41.268Z,25.50
2018-11-28T12:28:09.448Z,23.10
2018-11-28T12:30:37.698Z,25.10
2018-11-28T12:33:06.638Z,28.23
2018-11-28T12:35:34.881Z,20.97
2018-11-28T12:38:03.207Z,26.90
2018-11-28T12:40:32.633Z,24.83
2018-11-28T12:43:01.258Z,20.50
2018-11-28T12:45:29.452Z,29.67
2018-11-28T12:47:57.609Z,22.63
2018-11-28T12:50:28.721Z,20.73
2018-11-28T12:52:58.221Z,24.73
2018-11-28T12:55:26.433Z,25.93
2018-11-28T12:57:55.584Z,23.13
2018-11-28T13:00:24.996Z,20.87
2018-11-28T13:02:53.180Z,27.97
2018-11-28T13:05:22.561Z,22.40
2018-11-28T13:07:50.780Z,21.23
2018-11-28T13:10:20.217Z,25.90
2018-11-28T13:12:49.165Z,22.03
2018-11-28T13:15:18.222Z,22.77
2018-11-28T13:17:46.400Z,23.63
2018-11-28T13:20:15.582Z,23.20
2018-11-28T13:22:43.968Z,17.97
2018-11-28T13:25:14.300Z,17.77
2018-11-28T13:27:42.818Z,19.70
2018-11-28T13:30:15.069Z,23.43
2018-11-28T13:32:43.616Z,22.70
2018-11-28T13:35:12.856Z,19.07
2018-11-28T13:37:41.417Z,19.37
2018-11-28T13:40:11.842Z,20.90
2018-11-28T13:42:40.092Z,22.23
2018-11-28T13:45:13.442Z,20.13
2018-11-28T13:47:42.446Z,22.07
2018-11-28T13:50:11.061Z,19.30
2018-11-28T13:52:39.237Z,17.43
2018-11-28T13:57:41.546Z,17.83
2018-11-28T14:00:10.190Z,19.23
2018-11-28T14:02:38.597Z,21.77
2018-11-28T14:05:08.955Z,20.73
2018-11-28T14:07:37.087Z,20.50
2018-11-28T14:10:08.673Z,22.77
2018-11-28T14:12:36.924Z,15.73
2018-11-28T14:15:07.906Z,18.90
2018-11-28T14:17:36.065Z,19.00
2018-11-28T14:20:04.237Z,18.87
2018-11-28T14:22:32.388Z,24.63
2018-11-28T14:25:00.605Z,18.90
2018-11-28T14:27:28.784Z,22.27
2018-11-28T14:29:56.958Z,20.27
2018-11-28T14:32:25.090Z,24.83
2018-11-28T14:34:54.077Z,22.00
2018-11-28T14:37:22.316Z,18.67
2018-11-28T14:39:50.461Z,21.57
2018-11-28T14:42:18.601Z,20.90
2018-11-28T14:44:46.754Z,23.07
2018-11-28T14:47:14.884Z,23.00
2018-11-28T14:49:43.076Z,21.50
2018-11-28T14:52:11.281Z,19.70
2018-11-28T14:54:39.400Z,20.10
2018-11-28T14:57:07.565Z,19.77
2018-11-28T14:59:40.359Z,17.70
2018-11-28T15:02:03.949Z,19.13
2018-11-28T15:04:32.117Z,19.10
2018-11-28T15:07:01.463Z,20.30
2018-11-28T15:09:36.437Z,18.63
2018-11-28T15:12:11.598Z,21.27
2018-11-28T15:14:35.744Z,18.57
2018-11-28T15:17:03.913Z,24.17
2018-11-28T15:19:32.107Z,19.83
2018-11-28T15:22:00.281Z,21.23
2018-11-28T15:24:28.478Z,25.70
2018-11-28T15:26:56.633Z,22.17
2018-11-28T15:29:24.813Z,20.73
2018-11-28T15:31:53.017Z,20.50
2018-11-28T15:34:21.218Z,24.00
2018-11-28T15:36:49.360Z,24.27
2018-11-28T15:39:17.509Z,21.00
2018-11-28T15:41:45.659Z,27.30
2018-11-28T15:44:13.865Z,30.97
2018-11-28T15:46:42.105Z,26.80
2018-11-28T15:49:10.256Z,22.47
2018-11-28T15:51:38.409Z,27.03
2018-11-28T15:54:06.633Z,22.60
2018-11-28T15:56:34.821Z,26.47
2018-11-28T15:59:02.982Z,26.00
2018-11-28T16:01:31.145Z,25.37
2018-11-28T16:03:59.289Z,26.00
2018-11-28T16:06:27.446Z,24.67
2018-11-28T16:08:55.638Z,32.87
2018-11-28T16:11:24.450Z,32.40
2018-11-28T16:13:52.628Z,24.63
2018-11-28T16:16:20.764Z,31.63
2018-11-28T16:18:49.028Z,29.07
2018-11-28T16:21:17.277Z,26.87
2018-11-28T16:23:45.461Z,39.90
2018-11-28T16:26:13.661Z,38.23
2018-11-28T16:28:41.823Z,31.37
2018-11-28T16:31:09.995Z,25.43
2018-11-28T16:33:38.140Z,27.53
2018-11-28T16:36:06.337Z,30.97
2018-11-28T16:38:34.468Z,32.27
2018-11-28T16:41:02.617Z,31.00
2018-11-28T16:43:30.810Z,33.93
2018-11-28T16:45:58.993Z,29.37
2018-11-28T16:48:27.164Z,30.57
2018-11-28T16:50:55.316Z,30.43
2018-11-28T16:53:23.477Z,29.03
2018-11-28T16:55:51.683Z,33.00
2018-11-28T16:58:19.853Z,32.90
2018-11-28T17:00:47.988Z,29.80
2018-11-28T17:03:16.236Z,30.07
2018-11-28T17:05:44.379Z,29.23
2018-11-28T17:08:12.592Z,31.20
2018-11-28T17:10:40.776Z,32.30
2018-11-28T17:13:08.936Z,33.77
2018-11-28T17:15:37.074Z,35.47
2018-11-28T17:18:06.057Z,33.63
2018-11-28T17:20:34.211Z,32.07
2018-11-28T17:23:02.438Z,27.97
2018-11-28T17:25:32.185Z,30.43
2018-11-28T17:28:00.481Z,34.77
2018-11-28T17:30:30.746Z,32.67
2018-11-28T17:32:58.942Z,29.73
2018-11-28T17:35:27.076Z,32.77
2018-11-28T17:37:55.229Z,29.20
2018-11-28T17:40:27.497Z,34.73
2018-11-28T17:42:57.825Z,33.93
2018-11-28T17:45:26.390Z,31.47
2018-11-28T17:47:54.580Z,36.33
2018-11-28T17:50:23.859Z,33.30
2018-11-28T17:53:10.163Z,31.33
2018-11-28T17:55:43.418Z,29.00
2018-11-28T17:58:10.910Z,33.10
2018-11-28T18:00:39.208Z,28.60
2018-11-28T18:03:07.397Z,29.27
2018-11-28T18:05:35.556Z,24.00
2018-11-28T18:08:03.725Z,30.33
2018-11-28T18:10:31.973Z,29.30
2018-11-28T18:13:07.753Z,29.83
2018-11-28T18:15:35.892Z,27.10
2018-11-28T18:18:04.550Z,28.00
2018-11-28T18:20:32.715Z,24.13
2018-11-28T18:23:00.878Z,25.57
2018-11-28T18:25:30.442Z,27.37
2018-11-28T18:27:58.580Z,23.47
2018-11-28T18:30:26.750Z,24.33
2018-11-28T18:32:55.009Z,22.07
2018-11-28T18:35:23.164Z,24.63
2018-11-28T18:37:51.328Z,24.57
2018-11-28T18:40:19.545Z,24.17
2018-11-28T18:42:47.709Z,23.13
2018-11-28T18:45:20.528Z,25.97
2018-11-28T18:47:48.908Z,22.30
2018-11-28T18:50:17.221Z,20.50
2018-11-28T18:52:45.386Z,20.87
2018-11-28T18:55:16.718Z,21.70
2018-11-28T18:57:43.115Z,21.17
2018-11-28T19:00:13.717Z,23.77
2018-11-28T19:02:42.748Z,20.90
2018-11-28T19:05:10.257Z,19.93
2018-11-28T19:07:38.404Z,19.77
2018-11-28T19:10:09.661Z,20.33
2018-11-28T19:12:37.825Z,19.47
2018-11-28T19:15:09.073Z,18.23
2018-11-28T19:17:37.254Z,21.73
2018-11-28T19:20:08.293Z,21.40
2018-11-28T19:22:36.437Z,17.83
2018-11-28T19:25:06.564Z,18.63
2018-11-28T19:27:34.728Z,16.23
2018-11-28T19:30:02.952Z,19.93
2018-11-28T19:32:31.183Z,21.33
2018-11-28T19:34:59.353Z,20.60
2018-11-28T19:37:27.494Z,22.13
2018-11-28T19:39:55.659Z,20.07
2018-11-28T19:42:23.852Z,20.17
2018-11-28T19:44:52.126Z,16.60
2018-11-28T19:47:20.241Z,16.33
2018-11-28T19:49:48.393Z,16.23
2018-11-28T19:52:16.624Z,18.83
2018-11-28T19:54:44.814Z,16.80
2018-11-28T19:57:12.976Z,18.10
2018-11-28T19:59:41.250Z,22.83
2018-11-28T20:02:09.433Z,14.33
2018-11-28T20:04:37.609Z,15.77
2018-11-28T20:07:06.062Z,13.13
2018-11-28T20:09:34.290Z,18.07
2018-11-28T20:12:02.452Z,18.80
2018-11-28T20:14:30.652Z,16.53
2018-11-28T20:16:58.998Z,18.30
2018-11-28T20:19:27.482Z,20.67
2018-11-28T20:21:55.669Z,17.20
2018-11-28T20:24:23.862Z,18.37
2018-11-28T20:26:52.066Z,16.90
2018-11-28T20:29:20.390Z,16.93
2018-11-28T20:31:48.709Z,18.50
2018-11-28T20:34:18.001Z,17.43
2018-11-28T20:36:47.008Z,17.03
2018-11-28T20:39:15.594Z,15.80
2018-11-28T20:41:44.435Z,15.87
2018-11-28T20:44:12.818Z,16.90
2018-11-28T20:46:41.463Z,17.50
2018-11-28T20:49:09.839Z,16.33
2018-11-28T20:51:38.422Z,18.70
2018-11-28T20:54:07.147Z,19.87
2018-11-28T20:56:36.432Z,15.87
2018-11-28T20:59:05.474Z,15.27
2018-11-28T21:01:33.777Z,15.60
2018-11-28T21:04:01.967Z,14.07
2018-11-28T21:06:30.118Z,18.30
2018-11-28T21:08:58.297Z,15.13
2018-11-28T21:11:26.440Z,16.20
2018-11-28T21:13:54.593Z,14.70
2018-11-28T21:16:22.749Z,14.20
2018-11-28T21:18:50.905Z,13.00
2018-11-28T21:21:19.064Z,13.93
2018-11-28T21:23:47.213Z,15.17
2018-11-28T21:26:15.386Z,14.60
2018-11-28T21:28:43.589Z,15.83
2018-11-28T21:31:11.767Z,14.03
2018-11-28T21:33:39.994Z,16.77
2018-11-28T21:36:08.336Z,12.30
2018-11-28T21:38:36.453Z,14.53
2018-11-28T21:41:04.923Z,18.23
2018-11-28T21:43:33.086Z,14.20
2018-11-28T21:46:01.303Z,10.97
2018-11-28T21:48:29.470Z,14.63
2018-11-28T21:50:57.626Z,14.80
2018-11-28T21:53:25.849Z,13.80
2018-11-28T21:55:54.036Z,17.07
2018-11-28T21:58:22.188Z,11.60
2018-11-28T22:00:50.334Z,12.33
2018-11-28T22:03:18.472Z,12.73
2018-11-28T22:05:46.682Z,13.33
2018-11-28T22:08:14.888Z,11.60
2018-11-28T22:10:43.024Z,14.73
2018-11-28T22:13:11.181Z,11.60
2018-11-28T22:15:39.333Z,12.13
2018-11-28T22:18:07.554Z,12.57
2018-11-28T22:20:35.708Z,13.10
2018-11-28T22:23:03.870Z,13.53
2018-11-28T22:25:32.113Z,12.87
2018-11-28T22:28:00.251Z,12.77
2018-11-28T22:30:29.060Z,12.00
2018-11-28T22:32:57.817Z,11.57
2018-11-28T22:35:26.053Z,11.87
2018-11-28T22:37:54.228Z,12.87
2018-11-28T22:40:25.481Z,14.53
2018-11-28T22:42:53.629Z,12.50
2018-11-28T22:45:29.713Z,11.00
2018-11-28T22:47:57.860Z,14.13
2018-11-28T22:50:26.017Z,12.00
2018-11-28T22:52:54.180Z,13.47
2018-11-28T22:55:22.332Z,13.10
2018-11-28T22:57:50.495Z,11.83
2018-11-28T23:00:24.879Z,13.13
2018-11-28T23:03:05.838Z,14.70
2018-11-28T23:05:37.921Z,10.47
2018-11-28T23:08:08.057Z,9.87
2018-11-28T23:10:36.829Z,10.13
2018-11-28T23:13:05.401Z,11.87
2018-11-28T23:15:33.630Z,15.37
2018-11-28T23:18:01.797Z,12.07
2018-11-28T23:20:29.977Z,11.97
2018-11-28T23:22:58.105Z,14.07
2018-11-28T23:25:26.293Z,10.03
2018-11-28T23:27:54.508Z,11.00
2018-11-28T23:30:29.334Z,12.13
2018-11-28T23:32:57.517Z,10.17
2018-11-28T23:35:25.738Z,8.47
2018-11-28T23:37:53.909Z,10.60
2018-11-28T23:40:22.865Z,10.70
2018-11-28T23:42:51.622Z,10.70
2018-11-28T23:45:19.805Z,10.53
2018-11-28T23:47:48.131Z,10.83
2018-11-28T23:50:18.109Z,10.63
2018-11-28T23:52:46.637Z,12.13
2018-11-28T23:55:30.768Z,10.03
2018-11-28T23:57:58.907Z,12.17
